sensor_id;sensor_type;location;lat;lon;timestamp;pressure;altitude;pressure_sealevel;temperature;humidity
54924;BME280;40825;52.270;20.984;2022-12-08T00:01:13;99743.89;;;-0.01;90.83
54924;BME280;40825;52.270;20.984;2022-12-08T00:03:39;99744.71;;;-0.02;90.84
54924;BME280;40825;52.270;20.984;2022-12-08T00:06:06;99747.03;;;-0.03;90.85
54924;BME280;40825;52.270;20.984;2022-12-08T00:08:50;99749.90;;;-0.04;90.83
54924;BME280;40825;52.270;20.984;2022-12-08T00:11:35;99752.64;;;-0.05;90.86
54924;BME280;40825;52.270;20.984;2022-12-08T00:14:00;99764.96;;;-0.04;90.98
54924;BME280;40825;52.270;20.984;2022-12-08T00:16:26;99766.67;;;0.01;90.96
54924;BME280;40825;52.270;20.984;2022-12-08T00:18:51;99765.98;;;0.05;90.79
54924;BME280;40825;52.270;20.984;2022-12-08T00:21:17;99765.05;;;0.05;90.77
54924;BME280;40825;52.270;20.984;2022-12-08T00:23:42;99774.09;;;0.06;90.75
54924;BME280;40825;52.270;20.984;2022-12-08T00:26:08;99777.64;;;0.07;90.45
54924;BME280;40825;52.270;20.984;2022-12-08T00:28:34;99779.23;;;0.11;90.43
54924;BME280;40825;52.270;20.984;2022-12-08T00:31:01;99783.70;;;0.14;90.21
54924;BME280;40825;52.270;20.984;2022-12-08T00:33:31;99788.50;;;0.17;90.18
54924;BME280;40825;52.270;20.984;2022-12-08T00:35:56;99795.06;;;0.22;90.10
54924;BME280;40825;52.270;20.984;2022-12-08T00:38:22;99792.66;;;0.23;89.30
54924;BME280;40825;52.270;20.984;2022-12-08T00:40:47;99794.02;;;0.23;88.77
54924;BME280;40825;52.270;20.984;2022-12-08T00:43:13;99796.90;;;0.25;89.08
54924;BME280;40825;52.270;20.984;2022-12-08T00:45:39;99800.80;;;0.26;89.24
54924;BME280;40825;52.270;20.984;2022-12-08T00:48:05;99806.02;;;0.26;87.95
54924;BME280;40825;52.270;20.984;2022-12-08T00:50:31;99813.89;;;0.29;88.82
54924;BME280;40825;52.270;20.984;2022-12-08T00:52:56;99819.64;;;0.29;88.58
54924;BME280;40825;52.270;20.984;2022-12-08T00:55:22;99822.10;;;0.31;88.96
54924;BME280;40825;52.270;20.984;2022-12-08T00:57:47;99815.16;;;0.32;88.65
54924;BME280;40825;52.270;20.984;2022-12-08T01:00:13;99815.30;;;0.31;87.82
54924;BME280;40825;52.270;20.984;2022-12-08T01:02:39;99816.16;;;0.31;88.64
54924;BME280;40825;52.270;20.984;2022-12-08T01:05:05;99822.19;;;0.32;88.01
54924;BME280;40825;52.270;20.984;2022-12-08T01:07:31;99819.61;;;0.32;88.12
54924;BME280;40825;52.270;20.984;2022-12-08T01:09:57;99820.73;;;0.31;88.10
54924;BME280;40825;52.270;20.984;2022-12-08T01:12:22;99826.93;;;0.30;88.34
54924;BME280;40825;52.270;20.984;2022-12-08T01:14:48;99823.92;;;0.26;87.77
54924;BME280;40825;52.270;20.984;2022-12-08T01:17:13;99825.41;;;0.19;88.09
54924;BME280;40825;52.270;20.984;2022-12-08T01:19:39;99828.39;;;0.15;88.13
54924;BME280;40825;52.270;20.984;2022-12-08T01:22:04;99832.30;;;0.17;88.30
54924;BME280;40825;52.270;20.984;2022-12-08T01:24:30;99831.27;;;0.18;88.32
54924;BME280;40825;52.270;20.984;2022-12-08T01:26:56;99840.17;;;0.19;88.12
54924;BME280;40825;52.270;20.984;2022-12-08T01:29:21;99832.85;;;0.16;88.12
54924;BME280;40825;52.270;20.984;2022-12-08T01:31:47;99833.20;;;0.14;87.99
54924;BME280;40825;52.270;20.984;2022-12-08T01:34:12;99833.34;;;0.15;87.81
54924;BME280;40825;52.270;20.984;2022-12-08T01:36:38;99833.80;;;0.15;88.02
54924;BME280;40825;52.270;20.984;2022-12-08T01:39:07;99829.37;;;0.12;87.64
54924;BME280;40825;52.270;20.984;2022-12-08T01:41:36;99828.02;;;0.08;87.36
54924;BME280;40825;52.270;20.984;2022-12-08T01:46:40;99832.02;;;0.06;87.35
54924;BME280;40825;52.270;20.984;2022-12-08T01:49:10;99832.64;;;0.05;87.28
54924;BME280;40825;52.270;20.984;2022-12-08T01:52:02;99836.52;;;0.02;87.22
54924;BME280;40825;52.270;20.984;2022-12-08T01:54:35;99840.78;;;-0.01;87.22
54924;BME280;40825;52.270;20.984;2022-12-08T01:57:08;99842.95;;;-0.01;87.72
54924;BME280;40825;52.270;20.984;2022-12-08T01:59:38;99841.00;;;-0.01;87.32
54924;BME280;40825;52.270;20.984;2022-12-08T02:02:06;99844.92;;;-0.02;87.57
54924;BME280;40825;52.270;20.984;2022-12-08T02:04:33;99841.01;;;-0.03;87.23
54924;BME280;40825;52.270;20.984;2022-12-08T02:06:58;99844.42;;;-0.04;87.19
54924;BME280;40825;52.270;20.984;2022-12-08T02:09:25;99838.98;;;-0.06;87.02
54924;BME280;40825;52.270;20.984;2022-12-08T02:11:51;99839.47;;;-0.06;87.14
54924;BME280;40825;52.270;20.984;2022-12-08T02:14:19;99837.40;;;-0.06;86.69
54924;BME280;40825;52.270;20.984;2022-12-08T02:16:55;99838.31;;;-0.06;86.79
54924;BME280;40825;52.270;20.984;2022-12-08T02:22:09;99838.09;;;-0.11;86.56
54924;BME280;40825;52.270;20.984;2022-12-08T02:31:14;99838.69;;;-0.25;86.87
54924;BME280;40825;52.270;20.984;2022-12-08T02:36:34;99834.38;;;-0.35;86.84
54924;BME280;40825;52.270;20.984;2022-12-08T02:39:21;99838.14;;;-0.38;86.85
54924;BME280;40825;52.270;20.984;2022-12-08T02:42:01;99838.18;;;-0.41;86.77
54924;BME280;40825;52.270;20.984;2022-12-08T02:44:37;99835.41;;;-0.42;86.72
54924;BME280;40825;52.270;20.984;2022-12-08T02:47:08;99842.05;;;-0.39;86.90
54924;BME280;40825;52.270;20.984;2022-12-08T02:49:35;99843.20;;;-0.36;87.08
54924;BME280;40825;52.270;20.984;2022-12-08T02:52:47;99849.52;;;-0.33;87.08
54924;BME280;40825;52.270;20.984;2022-12-08T02:55:04;99845.21;;;-0.29;87.07
54924;BME280;40825;52.270;20.984;2022-12-08T02:58:11;99849.57;;;-0.27;86.67
54924;BME280;40825;52.270;20.984;2022-12-08T03:03:30;99860.23;;;-0.21;86.69
54924;BME280;40825;52.270;20.984;2022-12-08T03:06:21;99862.20;;;-0.20;86.59
54924;BME280;40825;52.270;20.984;2022-12-08T03:08:59;99864.25;;;-0.21;86.57
54924;BME280;40825;52.270;20.984;2022-12-08T03:11:57;99863.05;;;-0.25;86.94
54924;BME280;40825;52.270;20.984;2022-12-08T03:14:26;99868.16;;;-0.30;86.78
54924;BME280;40825;52.270;20.984;2022-12-08T03:16:56;99870.64;;;-0.34;86.49
54924;BME280;40825;52.270;20.984;2022-12-08T03:19:28;99873.02;;;-0.38;86.91
54924;BME280;40825;52.270;20.984;2022-12-08T03:21:58;99877.05;;;-0.42;86.96
54924;BME280;40825;52.270;20.984;2022-12-08T03:24:39;99876.73;;;-0.44;87.00
54924;BME280;40825;52.270;20.984;2022-12-08T03:27:09;99882.85;;;-0.45;87.06
54924;BME280;40825;52.270;20.984;2022-12-08T03:29:36;99884.48;;;-0.45;87.06
54924;BME280;40825;52.270;20.984;2022-12-08T03:32:15;99885.73;;;-0.45;86.97
54924;BME280;40825;52.270;20.984;2022-12-08T03:34:45;99889.59;;;-0.46;86.96
54924;BME280;40825;52.270;20.984;2022-12-08T03:37:12;99890.64;;;-0.46;86.99
54924;BME280;40825;52.270;20.984;2022-12-08T03:39:37;99888.06;;;-0.44;87.02
54924;BME280;40825;52.270;20.984;2022-12-08T03:42:03;99886.59;;;-0.43;87.07
54924;BME280;40825;52.270;20.984;2022-12-08T03:44:29;99893.86;;;-0.42;87.11
54924;BME280;40825;52.270;20.984;2022-12-08T03:46:54;99896.30;;;-0.40;87.23
54924;BME280;40825;52.270;20.984;2022-12-08T03:49:20;99889.36;;;-0.41;86.85
54924;BME280;40825;52.270;20.984;2022-12-08T03:51:45;99892.77;;;-0.42;87.02
54924;BME280;40825;52.270;20.984;2022-12-08T03:54:11;99888.73;;;-0.44;87.06
54924;BME280;40825;52.270;20.984;2022-12-08T03:56:37;99892.69;;;-0.45;87.02
54924;BME280;40825;52.270;20.984;2022-12-08T03:59:05;99889.02;;;-0.45;87.00
54924;BME280;40825;52.270;20.984;2022-12-08T04:01:30;99894.69;;;-0.46;87.00
54924;BME280;40825;52.270;20.984;2022-12-08T04:03:56;99893.99;;;-0.48;86.88
54924;BME280;40825;52.270;20.984;2022-12-08T04:06:22;99896.97;;;-0.50;87.05
54924;BME280;40825;52.270;20.984;2022-12-08T04:08:48;99902.34;;;-0.49;87.11
54924;BME280;40825;52.270;20.984;2022-12-08T04:11:15;99904.93;;;-0.47;87.04
54924;BME280;40825;52.270;20.984;2022-12-08T04:13:41;99908.98;;;-0.43;87.20
54924;BME280;40825;52.270;20.984;2022-12-08T04:16:07;99907.33;;;-0.40;87.20
54924;BME280;40825;52.270;20.984;2022-12-08T04:18:34;99916.20;;;-0.38;87.20
54924;BME280;40825;52.270;20.984;2022-12-08T04:21:00;99914.29;;;-0.34;87.16
54924;BME280;40825;52.270;20.984;2022-12-08T04:23:26;99917.35;;;-0.28;87.02
54924;BME280;40825;52.270;20.984;2022-12-08T04:25:52;99917.71;;;-0.24;86.99
54924;BME280;40825;52.270;20.984;2022-12-08T04:28:18;99919.94;;;-0.22;86.96
54924;BME280;40825;52.270;20.984;2022-12-08T04:30:43;99916.97;;;-0.20;86.81
54924;BME280;40825;52.270;20.984;2022-12-08T04:33:09;99921.28;;;-0.17;86.49
54924;BME280;40825;52.270;20.984;2022-12-08T04:35:35;99918.25;;;-0.18;86.46
54924;BME280;40825;52.270;20.984;2022-12-08T04:38:00;99923.02;;;-0.19;86.87
54924;BME280;40825;52.270;20.984;2022-12-08T04:40:26;99927.91;;;-0.21;86.75
54924;BME280;40825;52.270;20.984;2022-12-08T04:42:51;99925.95;;;-0.24;86.82
54924;BME280;40825;52.270;20.984;2022-12-08T04:45:17;99930.66;;;-0.29;86.90
54924;BME280;40825;52.270;20.984;2022-12-08T04:47:42;99930.98;;;-0.31;86.70
54924;BME280;40825;52.270;20.984;2022-12-08T04:50:08;99931.91;;;-0.33;86.62
54924;BME280;40825;52.270;20.984;2022-12-08T04:52:34;99938.13;;;-0.36;86.78
54924;BME280;40825;52.270;20.984;2022-12-08T04:55:00;99937.51;;;-0.39;86.69
54924;BME280;40825;52.270;20.984;2022-12-08T04:57:25;99932.45;;;-0.42;86.78
54924;BME280;40825;52.270;20.984;2022-12-08T04:59:51;99931.58;;;-0.44;86.82
54924;BME280;40825;52.270;20.984;2022-12-08T05:02:16;99931.29;;;-0.48;86.84
54924;BME280;40825;52.270;20.984;2022-12-08T05:04:42;99939.42;;;-0.50;87.01
54924;BME280;40825;52.270;20.984;2022-12-08T05:07:07;99938.78;;;-0.50;86.98
54924;BME280;40825;52.270;20.984;2022-12-08T05:09:33;99944.21;;;-0.51;87.06
54924;BME280;40825;52.270;20.984;2022-12-08T05:11:58;99945.66;;;-0.49;87.07
54924;BME280;40825;52.270;20.984;2022-12-08T05:14:24;99945.83;;;-0.47;87.03
54924;BME280;40825;52.270;20.984;2022-12-08T05:16:49;99954.10;;;-0.46;86.98
54924;BME280;40825;52.270;20.984;2022-12-08T05:19:15;99956.39;;;-0.46;86.96
54924;BME280;40825;52.270;20.984;2022-12-08T05:21:41;99955.66;;;-0.49;87.01
54924;BME280;40825;52.270;20.984;2022-12-08T05:24:07;99957.07;;;-0.54;86.99
54924;BME280;40825;52.270;20.984;2022-12-08T05:26:33;99961.11;;;-0.56;87.00
54924;BME280;40825;52.270;20.984;2022-12-08T05:28:58;99955.38;;;-0.57;87.00
54924;BME280;40825;52.270;20.984;2022-12-08T05:31:23;99956.95;;;-0.54;86.96
54924;BME280;40825;52.270;20.984;2022-12-08T05:33:50;99952.77;;;-0.55;86.95
54924;BME280;40825;52.270;20.984;2022-12-08T05:36:16;99952.11;;;-0.58;87.02
54924;BME280;40825;52.270;20.984;2022-12-08T05:38:42;99953.23;;;-0.62;86.99
54924;BME280;40825;52.270;20.984;2022-12-08T05:41:10;99950.58;;;-0.68;87.07
54924;BME280;40825;52.270;20.984;2022-12-08T05:43:37;99951.36;;;-0.76;87.10
54924;BME280;40825;52.270;20.984;2022-12-08T05:46:03;99952.42;;;-0.82;87.12
54924;BME280;40825;52.270;20.984;2022-12-08T05:48:29;99952.00;;;-0.88;87.21
54924;BME280;40825;52.270;20.984;2022-12-08T05:50:54;99954.59;;;-0.94;87.25
54924;BME280;40825;52.270;20.984;2022-12-08T05:53:20;99947.03;;;-1.00;87.26
54924;BME280;40825;52.270;20.984;2022-12-08T05:55:46;99953.96;;;-1.05;87.45
54924;BME280;40825;52.270;20.984;2022-12-08T05:58:14;99954.66;;;-1.09;87.41
54924;BME280;40825;52.270;20.984;2022-12-08T06:00:40;99955.02;;;-1.14;87.65
54924;BME280;40825;52.270;20.984;2022-12-08T06:03:06;99967.45;;;-1.17;87.75
54924;BME280;40825;52.270;20.984;2022-12-08T06:05:33;99972.01;;;-1.19;87.67
54924;BME280;40825;52.270;20.984;2022-12-08T06:07:59;99981.92;;;-1.19;87.91
54924;BME280;40825;52.270;20.984;2022-12-08T06:10:24;99985.35;;;-1.20;87.86
54924;BME280;40825;52.270;20.984;2022-12-08T06:12:50;99991.19;;;-1.21;87.69
54924;BME280;40825;52.270;20.984;2022-12-08T06:15:15;99995.55;;;-1.16;88.03
54924;BME280;40825;52.270;20.984;2022-12-08T06:17:41;99998.55;;;-1.06;87.94
54924;BME280;40825;52.270;20.984;2022-12-08T06:20:07;100002.86;;;-0.96;87.83
54924;BME280;40825;52.270;20.984;2022-12-08T06:22:32;100005.95;;;-0.87;87.85
54924;BME280;40825;52.270;20.984;2022-12-08T06:24:58;100011.24;;;-0.79;87.74
54924;BME280;40825;52.270;20.984;2022-12-08T06:27:24;100011.54;;;-0.70;87.67
54924;BME280;40825;52.270;20.984;2022-12-08T06:29:49;100016.20;;;-0.63;87.58
54924;BME280;40825;52.270;20.984;2022-12-08T06:32:15;100018.20;;;-0.58;87.52
54924;BME280;40825;52.270;20.984;2022-12-08T06:34:40;100015.34;;;-0.52;86.93
54924;BME280;40825;52.270;20.984;2022-12-08T06:37:06;100011.67;;;-0.46;86.95
54924;BME280;40825;52.270;20.984;2022-12-08T06:39:31;100012.53;;;-0.42;87.07
54924;BME280;40825;52.270;20.984;2022-12-08T06:41:56;100009.36;;;-0.38;87.03
54924;BME280;40825;52.270;20.984;2022-12-08T06:44:40;100010.14;;;-0.34;87.13
54924;BME280;40825;52.270;20.984;2022-12-08T06:47:06;100011.95;;;-0.33;87.00
54924;BME280;40825;52.270;20.984;2022-12-08T06:49:31;100016.43;;;-0.30;87.09
54924;BME280;40825;52.270;20.984;2022-12-08T06:51:57;100018.81;;;-0.27;87.20
54924;BME280;40825;52.270;20.984;2022-12-08T06:54:23;100027.79;;;-0.23;87.14
54924;BME280;40825;52.270;20.984;2022-12-08T06:56:48;100028.11;;;-0.21;86.95
54924;BME280;40825;52.270;20.984;2022-12-08T06:59:13;100025.33;;;-0.19;86.88
54924;BME280;40825;52.270;20.984;2022-12-08T07:01:39;100028.98;;;-0.17;87.14
54924;BME280;40825;52.270;20.984;2022-12-08T07:04:04;100035.13;;;-0.15;87.10
54924;BME280;40825;52.270;20.984;2022-12-08T07:06:31;100033.96;;;-0.13;86.67
54924;BME280;40825;52.270;20.984;2022-12-08T07:08:56;100032.33;;;-0.12;86.68
54924;BME280;40825;52.270;20.984;2022-12-08T07:11:23;100031.68;;;-0.13;86.51
54924;BME280;40825;52.270;20.984;2022-12-08T07:13:49;100033.73;;;-0.13;86.51
54924;BME280;40825;52.270;20.984;2022-12-08T07:16:14;100036.75;;;-0.11;86.26
54924;BME280;40825;52.270;20.984;2022-12-08T07:18:40;100038.23;;;-0.08;86.14
54924;BME280;40825;52.270;20.984;2022-12-08T07:21:09;100039.52;;;-0.05;86.06
54924;BME280;40825;52.270;20.984;2022-12-08T07:23:36;100039.56;;;-0.01;86.14
54924;BME280;40825;52.270;20.984;2022-12-08T07:26:05;100040.94;;;0.04;85.62
54924;BME280;40825;52.270;20.984;2022-12-08T07:28:34;100052.98;;;0.10;85.91
54924;BME280;40825;52.270;20.984;2022-12-08T07:31:02;100059.98;;;0.18;85.97
54924;BME280;40825;52.270;20.984;2022-12-08T07:33:28;100063.19;;;0.28;85.94
54924;BME280;40825;52.270;20.984;2022-12-08T07:35:58;100063.44;;;0.40;85.92
54924;BME280;40825;52.270;20.984;2022-12-08T07:38:31;100059.27;;;0.47;85.97
54924;BME280;40825;52.270;20.984;2022-12-08T07:40:57;100055.54;;;0.54;85.37
54924;BME280;40825;52.270;20.984;2022-12-08T07:43:22;100053.20;;;0.59;85.72
54924;BME280;40825;52.270;20.984;2022-12-08T07:45:48;100055.92;;;0.62;85.90
54924;BME280;40825;52.270;20.984;2022-12-08T07:48:14;100059.09;;;0.60;84.92
54924;BME280;40825;52.270;20.984;2022-12-08T07:50:40;100062.52;;;0.57;83.72
54924;BME280;40825;52.270;20.984;2022-12-08T07:53:06;100062.02;;;0.58;84.93
54924;BME280;40825;52.270;20.984;2022-12-08T07:55:32;100062.95;;;0.72;85.29
54924;BME280;40825;52.270;20.984;2022-12-08T07:57:57;100065.05;;;0.99;84.52
54924;BME280;40825;52.270;20.984;2022-12-08T08:00:23;100068.36;;;1.28;84.67
54924;BME280;40825;52.270;20.984;2022-12-08T08:02:49;100063.42;;;1.42;84.67
54924;BME280;40825;52.270;20.984;2022-12-08T08:05:14;100065.30;;;1.50;84.20
54924;BME280;40825;52.270;20.984;2022-12-08T08:07:40;100071.41;;;1.58;84.41
54924;BME280;40825;52.270;20.984;2022-12-08T08:10:09;100067.80;;;1.65;83.95
54924;BME280;40825;52.270;20.984;2022-12-08T08:12:36;100069.61;;;1.67;83.88
54924;BME280;40825;52.270;20.984;2022-12-08T08:15:06;100069.98;;;1.70;83.38
54924;BME280;40825;52.270;20.984;2022-12-08T08:17:33;100070.20;;;1.73;83.24
54924;BME280;40825;52.270;20.984;2022-12-08T08:19:59;100073.86;;;1.74;83.86
54924;BME280;40825;52.270;20.984;2022-12-08T08:22:26;100070.66;;;1.67;83.03
54924;BME280;40825;52.270;20.984;2022-12-08T08:24:52;100073.29;;;1.59;83.59
54924;BME280;40825;52.270;20.984;2022-12-08T08:27:18;100079.20;;;1.53;83.63
54924;BME280;40825;52.270;20.984;2022-12-08T08:29:43;100077.88;;;1.45;82.17
54924;BME280;40825;52.270;20.984;2022-12-08T08:32:10;100084.14;;;1.35;81.89
54924;BME280;40825;52.270;20.984;2022-12-08T08:34:36;100084.38;;;1.29;81.47
54924;BME280;40825;52.270;20.984;2022-12-08T08:37:01;100086.27;;;1.27;82.54
54924;BME280;40825;52.270;20.984;2022-12-08T08:39:27;100089.56;;;1.28;82.50
54924;BME280;40825;52.270;20.984;2022-12-08T08:41:54;100087.30;;;1.28;82.67
54924;BME280;40825;52.270;20.984;2022-12-08T08:44:19;100091.34;;;1.29;82.78
54924;BME280;40825;52.270;20.984;2022-12-08T08:46:45;100087.05;;;1.34;82.44
54924;BME280;40825;52.270;20.984;2022-12-08T08:49:11;100078.65;;;1.42;81.93
54924;BME280;40825;52.270;20.984;2022-12-08T08:51:36;100085.10;;;1.56;82.69
54924;BME280;40825;52.270;20.984;2022-12-08T08:54:02;100085.83;;;1.83;81.92
54924;BME280;40825;52.270;20.984;2022-12-08T08:56:27;100086.85;;;2.18;81.91
54924;BME280;40825;52.270;20.984;2022-12-08T08:58:53;100088.74;;;2.56;81.15
54924;BME280;40825;52.270;20.984;2022-12-08T09:01:22;100088.45;;;2.89;80.60
54924;BME280;40825;52.270;20.984;2022-12-08T09:03:47;100093.47;;;3.19;78.08
54924;BME280;40825;52.270;20.984;2022-12-08T09:06:14;100093.70;;;3.13;76.90
54924;BME280;40825;52.270;20.984;2022-12-08T09:08:41;100093.64;;;2.99;78.27
54924;BME280;40825;52.270;20.984;2022-12-08T09:11:07;100094.81;;;2.88;79.11
54924;BME280;40825;52.270;20.984;2022-12-08T09:13:33;100095.81;;;2.89;78.54
54924;BME280;40825;52.270;20.984;2022-12-08T09:16:04;100092.84;;;2.94;79.72
54924;BME280;40825;52.270;20.984;2022-12-08T09:18:30;100093.16;;;2.95;76.68
54924;BME280;40825;52.270;20.984;2022-12-08T09:21:03;100094.63;;;3.03;78.52
54924;BME280;40825;52.270;20.984;2022-12-08T09:23:28;100090.55;;;3.07;75.83
54924;BME280;40825;52.270;20.984;2022-12-08T09:25:54;100088.82;;;3.18;78.98
54924;BME280;40825;52.270;20.984;2022-12-08T09:28:19;100084.91;;;3.35;78.32
54924;BME280;40825;52.270;20.984;2022-12-08T09:30:45;100084.19;;;3.42;78.58
54924;BME280;40825;52.270;20.984;2022-12-08T09:33:10;100079.46;;;3.38;75.27
54924;BME280;40825;52.270;20.984;2022-12-08T09:35:36;100081.94;;;3.34;76.54
54924;BME280;40825;52.270;20.984;2022-12-08T09:38:01;100079.80;;;3.31;74.95
54924;BME280;40825;52.270;20.984;2022-12-08T09:40:28;100078.38;;;3.20;73.97
54924;BME280;40825;52.270;20.984;2022-12-08T09:43:40;100075.17;;;3.26;75.20
54924;BME280;40825;52.270;20.984;2022-12-08T09:46:09;100071.29;;;3.42;76.25
54924;BME280;40825;52.270;20.984;2022-12-08T09:48:57;100065.16;;;3.48;77.85
54924;BME280;40825;52.270;20.984;2022-12-08T09:51:25;100067.87;;;3.63;76.28
54924;BME280;40825;52.270;20.984;2022-12-08T09:53:56;100070.05;;;3.68;75.38
54924;BME280;40825;52.270;20.984;2022-12-08T09:56:26;100066.41;;;3.60;74.62
54924;BME280;40825;52.270;20.984;2022-12-08T09:58:57;100065.11;;;3.64;76.43
54924;BME280;40825;52.270;20.984;2022-12-08T10:01:30;100062.32;;;3.60;75.09
54924;BME280;40825;52.270;20.984;2022-12-08T10:03:56;100061.85;;;3.64;76.84
54924;BME280;40825;52.270;20.984;2022-12-08T10:06:31;100062.98;;;3.61;76.71
54924;BME280;40825;52.270;20.984;2022-12-08T10:12:02;100062.58;;;3.56;77.58
54924;BME280;40825;52.270;20.984;2022-12-08T10:14:41;100061.56;;;3.55;76.64
54924;BME280;40825;52.270;20.984;2022-12-08T10:17:32;100061.71;;;3.54;77.16
54924;BME280;40825;52.270;20.984;2022-12-08T10:20:23;100056.90;;;3.55;77.59
54924;BME280;40825;52.270;20.984;2022-12-08T10:23:08;100052.70;;;3.58;76.87
54924;BME280;40825;52.270;20.984;2022-12-08T10:25:47;100049.77;;;3.70;77.77
54924;BME280;40825;52.270;20.984;2022-12-08T10:28:13;100045.20;;;3.61;77.46
54924;BME280;40825;52.270;20.984;2022-12-08T10:30:38;100046.66;;;3.48;77.37
54924;BME280;40825;52.270;20.984;2022-12-08T10:33:11;100045.15;;;3.37;76.66
54924;BME280;40825;52.270;20.984;2022-12-08T10:35:47;100038.80;;;3.27;76.46
54924;BME280;40825;52.270;20.984;2022-12-08T10:41:18;100038.06;;;3.26;76.52
54924;BME280;40825;52.270;20.984;2022-12-08T10:43:58;100040.66;;;3.32;76.53
54924;BME280;40825;52.270;20.984;2022-12-08T10:46:25;100036.09;;;3.34;76.27
54924;BME280;40825;52.270;20.984;2022-12-08T10:48:54;100034.23;;;3.33;77.26
54924;BME280;40825;52.270;20.984;2022-12-08T10:51:29;100031.98;;;3.36;77.52
54924;BME280;40825;52.270;20.984;2022-12-08T10:53:55;100028.27;;;3.38;76.98
54924;BME280;40825;52.270;20.984;2022-12-08T10:56:24;100028.41;;;3.42;77.20
54924;BME280;40825;52.270;20.984;2022-12-08T10:59:04;100027.38;;;3.47;76.88
54924;BME280;40825;52.270;20.984;2022-12-08T11:01:36;100024.11;;;3.34;75.88
54924;BME280;40825;52.270;20.984;2022-12-08T11:04:09;100021.56;;;3.21;76.44
54924;BME280;40825;52.270;20.984;2022-12-08T11:06:38;100021.98;;;3.14;76.97
54924;BME280;40825;52.270;20.984;2022-12-08T11:11:46;100023.18;;;3.00;77.15
54924;BME280;40825;52.270;20.984;2022-12-08T11:20:18;100009.33;;;2.78;77.84
54924;BME280;40825;52.270;20.984;2022-12-08T11:22:54;100001.91;;;2.71;78.09
54924;BME280;40825;52.270;20.984;2022-12-08T11:25:25;100003.36;;;2.69;78.26
54924;BME280;40825;52.270;20.984;2022-12-08T11:27:56;100000.91;;;2.72;78.36
54924;BME280;40825;52.270;20.984;2022-12-08T11:30:25;99995.68;;;2.78;78.41
54924;BME280;40825;52.270;20.984;2022-12-08T11:32:56;99990.41;;;2.81;78.48
54924;BME280;40825;52.270;20.984;2022-12-08T11:35:31;99991.05;;;2.84;78.53
54924;BME280;40825;52.270;20.984;2022-12-08T11:38:09;99997.52;;;2.82;78.65
54924;BME280;40825;52.270;20.984;2022-12-08T11:40:41;99992.80;;;2.76;78.90
54924;BME280;40825;52.270;20.984;2022-12-08T11:43:28;99992.23;;;2.73;78.94
54924;BME280;40825;52.270;20.984;2022-12-08T11:45:59;99987.55;;;2.74;79.07
54924;BME280;40825;52.270;20.984;2022-12-08T11:48:35;99987.85;;;2.75;79.13
54924;BME280;40825;52.270;20.984;2022-12-08T11:51:10;99980.20;;;2.74;79.02
54924;BME280;40825;52.270;20.984;2022-12-08T11:56:19;99982.20;;;2.95;79.10
54924;BME280;40825;52.270;20.984;2022-12-08T11:58:54;99982.73;;;2.97;79.20
54924;BME280;40825;52.270;20.984;2022-12-08T12:01:22;99982.73;;;2.92;79.33
54924;BME280;40825;52.270;20.984;2022-12-08T12:09:45;99987.95;;;2.90;79.77
54924;BME280;40825;52.270;20.984;2022-12-08T12:20:58;99986.15;;;2.70;80.16
54924;BME280;40825;52.270;20.984;2022-12-08T12:23:40;99982.85;;;2.70;80.30
54924;BME280;40825;52.270;20.984;2022-12-08T12:26:16;99980.46;;;2.71;80.30
54924;BME280;40825;52.270;20.984;2022-12-08T12:31:34;99969.53;;;2.75;80.31
54924;BME280;40825;52.270;20.984;2022-12-08T12:34:16;99966.23;;;2.69;80.33
54924;BME280;40825;52.270;20.984;2022-12-08T12:36:53;99963.28;;;2.65;80.41
54924;BME280;40825;52.270;20.984;2022-12-08T12:39:23;99954.25;;;2.62;80.56
54924;BME280;40825;52.270;20.984;2022-12-08T12:41:58;99953.68;;;2.61;80.56
54924;BME280;40825;52.270;20.984;2022-12-08T12:46:59;99955.27;;;2.63;80.74
54924;BME280;40825;52.270;20.984;2022-12-08T12:54:43;99953.48;;;2.72;80.76
54924;BME280;40825;52.270;20.984;2022-12-08T12:57:37;99949.69;;;2.71;80.93
54924;BME280;40825;52.270;20.984;2022-12-08T13:02:38;99942.77;;;2.72;80.94
54924;BME280;40825;52.270;20.984;2022-12-08T13:05:16;99936.32;;;2.68;81.04
54924;BME280;40825;52.270;20.984;2022-12-08T13:07:50;99938.29;;;2.64;81.27
54924;BME280;40825;52.270;20.984;2022-12-08T13:10:36;99937.25;;;2.62;81.10
54924;BME280;40825;52.270;20.984;2022-12-08T13:15:36;99939.71;;;2.55;81.43
54924;BME280;40825;52.270;20.984;2022-12-08T13:18:04;99940.89;;;2.53;81.46
54924;BME280;40825;52.270;20.984;2022-12-08T13:20:40;99941.07;;;2.50;81.73
54924;BME280;40825;52.270;20.984;2022-12-08T13:25:51;99944.88;;;2.43;82.00
54924;BME280;40825;52.270;20.984;2022-12-08T13:28:26;99940.83;;;2.41;81.80
54924;BME280;40825;52.270;20.984;2022-12-08T13:30:54;99938.31;;;2.40;81.80
54924;BME280;40825;52.270;20.984;2022-12-08T13:33:40;99939.31;;;2.40;81.91
54924;BME280;40825;52.270;20.984;2022-12-08T13:36:22;99937.62;;;2.40;82.02
54924;BME280;40825;52.270;20.984;2022-12-08T13:38:53;99936.06;;;2.38;82.28
54924;BME280;40825;52.270;20.984;2022-12-08T13:41:23;99935.48;;;2.35;82.88
54924;BME280;40825;52.270;20.984;2022-12-08T13:44:00;99930.15;;;2.32;82.66
54924;BME280;40825;52.270;20.984;2022-12-08T13:46:49;99931.02;;;2.27;83.02
54924;BME280;40825;52.270;20.984;2022-12-08T13:49:20;99929.27;;;2.19;82.84
54924;BME280;40825;52.270;20.984;2022-12-08T13:51:48;99928.89;;;2.13;83.17
54924;BME280;40825;52.270;20.984;2022-12-08T13:54:29;99932.33;;;2.11;83.07
54924;BME280;40825;52.270;20.984;2022-12-08T13:56:57;99927.27;;;2.10;83.65
54924;BME280;40825;52.270;20.984;2022-12-08T13:59:30;99921.58;;;2.09;83.40
54924;BME280;40825;52.270;20.984;2022-12-08T14:02:08;99920.42;;;2.07;83.40
54924;BME280;40825;52.270;20.984;2022-12-08T14:04:43;99918.59;;;2.02;82.97
54924;BME280;40825;52.270;20.984;2022-12-08T14:07:10;99919.23;;;1.97;83.60
54924;BME280;40825;52.270;20.984;2022-12-08T14:09:36;99920.33;;;1.93;83.42
54924;BME280;40825;52.270;20.984;2022-12-08T14:12:23;99918.89;;;1.87;84.06